TAF Text Data
IDs:
Format:
Raw Decoded Include METAR

Data at: 0307 UTC 23 Sep 2018

KSBY 222332Z 2300/2324 02007KT P6SM BKN040 OVC080
  FM230300 04005KT P6SM SCT025 OVC060
  FM230700 05007KT P6SM VCSH SCT015 OVC025
  FM231600 05011KT P6SM OVC015